sensor_id;sensor_type;location;lat;lon;timestamp;P1;durP1;ratioP1;P2;durP2;ratioP2
71566;SDS011;59403;47.456;19.120;2023-04-06T00:00:47;10.88;;;4.53;;
71566;SDS011;59403;47.456;19.120;2023-04-06T00:03:15;8.27;;;4.70;;
71566;SDS011;59403;47.456;19.120;2023-04-06T00:05:42;9.20;;;4.60;;
71566;SDS011;59403;47.456;19.120;2023-04-06T00:08:09;10.13;;;4.60;;
71566;SDS011;59403;47.456;19.120;2023-04-06T00:10:37;9.38;;;4.87;;
71566;SDS011;59403;47.456;19.120;2023-04-06T00:13:07;10.05;;;5.05;;
71566;SDS011;59403;47.456;19.120;2023-04-06T00:15:34;8.73;;;4.95;;
71566;SDS011;59403;47.456;19.120;2023-04-06T00:18:03;10.02;;;4.97;;
71566;SDS011;59403;47.456;19.120;2023-04-06T00:20:30;9.80;;;4.60;;
71566;SDS011;59403;47.456;19.120;2023-04-06T00:22:57;9.63;;;5.47;;
71566;SDS011;59403;47.456;19.120;2023-04-06T00:25:24;9.60;;;5.12;;
71566;SDS011;59403;47.456;19.120;2023-04-06T00:27:52;8.73;;;5.28;;
71566;SDS011;59403;47.456;19.120;2023-04-06T00:30:18;10.38;;;5.30;;
71566;SDS011;59403;47.456;19.120;2023-04-06T00:32:45;10.80;;;4.73;;
71566;SDS011;59403;47.456;19.120;2023-04-06T00:35:14;9.88;;;5.22;;
71566;SDS011;59403;47.456;19.120;2023-04-06T00:37:41;9.32;;;5.18;;
71566;SDS011;59403;47.456;19.120;2023-04-06T00:40:08;9.68;;;4.62;;
71566;SDS011;59403;47.456;19.120;2023-04-06T00:42:36;9.95;;;5.10;;
71566;SDS011;59403;47.456;19.120;2023-04-06T00:45:03;10.53;;;5.03;;
71566;SDS011;59403;47.456;19.120;2023-04-06T00:47:30;8.52;;;5.05;;
71566;SDS011;59403;47.456;19.120;2023-04-06T00:49:57;9.77;;;5.70;;
71566;SDS011;59403;47.456;19.120;2023-04-06T00:52:26;9.90;;;4.68;;
71566;SDS011;59403;47.456;19.120;2023-04-06T00:54:53;9.57;;;5.07;;
71566;SDS011;59403;47.456;19.120;2023-04-06T00:57:20;13.43;;;4.73;;
71566;SDS011;59403;47.456;19.120;2023-04-06T00:59:47;9.88;;;5.40;;
71566;SDS011;59403;47.456;19.120;2023-04-06T01:04:52;9.13;;;5.28;;
71566;SDS011;59403;47.456;19.120;2023-04-06T01:07:21;8.23;;;5.18;;
71566;SDS011;59403;47.456;19.120;2023-04-06T01:09:52;10.33;;;5.40;;
71566;SDS011;59403;47.456;19.120;2023-04-06T01:12:20;11.05;;;5.65;;
71566;SDS011;59403;47.456;19.120;2023-04-06T01:14:47;10.38;;;6.15;;
71566;SDS011;59403;47.456;19.120;2023-04-06T01:17:14;10.50;;;5.40;;
71566;SDS011;59403;47.456;19.120;2023-04-06T01:19:43;8.73;;;5.03;;
71566;SDS011;59403;47.456;19.120;2023-04-06T01:22:14;8.87;;;5.40;;
71566;SDS011;59403;47.456;19.120;2023-04-06T01:24:42;13.43;;;5.55;;
71566;SDS011;59403;47.456;19.120;2023-04-06T01:27:09;11.18;;;5.53;;
71566;SDS011;59403;47.456;19.120;2023-04-06T01:29:36;12.40;;;5.75;;
71566;SDS011;59403;47.456;19.120;2023-04-06T01:32:06;11.20;;;5.82;;
71566;SDS011;59403;47.456;19.120;2023-04-06T01:34:34;9.87;;;5.43;;
71566;SDS011;59403;47.456;19.120;2023-04-06T01:37:01;10.75;;;5.62;;
71566;SDS011;59403;47.456;19.120;2023-04-06T01:39:29;9.18;;;5.57;;
71566;SDS011;59403;47.456;19.120;2023-04-06T01:41:56;9.55;;;5.28;;
71566;SDS011;59403;47.456;19.120;2023-04-06T01:44:23;11.70;;;6.22;;
71566;SDS011;59403;47.456;19.120;2023-04-06T01:46:50;10.37;;;6.00;;
71566;SDS011;59403;47.456;19.120;2023-04-06T01:49:17;11.48;;;6.03;;
71566;SDS011;59403;47.456;19.120;2023-04-06T01:51:44;10.43;;;5.60;;
71566;SDS011;59403;47.456;19.120;2023-04-06T01:54:11;11.82;;;5.75;;
71566;SDS011;59403;47.456;19.120;2023-04-06T01:56:41;12.82;;;5.55;;
71566;SDS011;59403;47.456;19.120;2023-04-06T01:59:08;11.00;;;6.07;;
71566;SDS011;59403;47.456;19.120;2023-04-06T02:01:35;11.00;;;6.25;;
71566;SDS011;59403;47.456;19.120;2023-04-06T02:04:02;11.45;;;6.32;;
71566;SDS011;59403;47.456;19.120;2023-04-06T02:06:29;12.68;;;6.62;;
71566;SDS011;59403;47.456;19.120;2023-04-06T02:08:56;14.70;;;6.68;;
71566;SDS011;59403;47.456;19.120;2023-04-06T02:11:23;12.23;;;7.20;;
71566;SDS011;59403;47.456;19.120;2023-04-06T02:13:51;11.68;;;6.32;;
71566;SDS011;59403;47.456;19.120;2023-04-06T02:16:18;13.10;;;6.45;;
71566;SDS011;59403;47.456;19.120;2023-04-06T02:18:45;13.25;;;6.47;;
71566;SDS011;59403;47.456;19.120;2023-04-06T02:21:12;14.75;;;7.57;;
71566;SDS011;59403;47.456;19.120;2023-04-06T02:23:42;13.40;;;7.17;;
71566;SDS011;59403;47.456;19.120;2023-04-06T02:26:09;10.30;;;6.15;;
71566;SDS011;59403;47.456;19.120;2023-04-06T02:28:37;14.70;;;7.28;;
71566;SDS011;59403;47.456;19.120;2023-04-06T02:31:05;15.00;;;6.68;;
71566;SDS011;59403;47.456;19.120;2023-04-06T02:33:32;15.20;;;7.12;;
71566;SDS011;59403;47.456;19.120;2023-04-06T02:35:59;15.13;;;6.97;;
71566;SDS011;59403;47.456;19.120;2023-04-06T02:38:27;14.27;;;7.45;;
71566;SDS011;59403;47.456;19.120;2023-04-06T02:40:53;13.80;;;7.82;;
71566;SDS011;59403;47.456;19.120;2023-04-06T02:43:21;13.68;;;6.80;;
71566;SDS011;59403;47.456;19.120;2023-04-06T02:45:48;14.05;;;6.72;;
71566;SDS011;59403;47.456;19.120;2023-04-06T02:48:16;13.43;;;7.27;;
71566;SDS011;59403;47.456;19.120;2023-04-06T02:50:43;10.85;;;6.07;;
71566;SDS011;59403;47.456;19.120;2023-04-06T02:53:10;11.88;;;6.93;;
71566;SDS011;59403;47.456;19.120;2023-04-06T02:55:37;15.95;;;6.82;;
71566;SDS011;59403;47.456;19.120;2023-04-06T02:58:04;13.15;;;6.60;;
71566;SDS011;59403;47.456;19.120;2023-04-06T03:00:31;14.17;;;7.00;;
71566;SDS011;59403;47.456;19.120;2023-04-06T03:02:59;15.57;;;6.90;;
71566;SDS011;59403;47.456;19.120;2023-04-06T03:05:27;11.93;;;7.05;;
71566;SDS011;59403;47.456;19.120;2023-04-06T03:07:54;12.25;;;7.35;;
71566;SDS011;59403;47.456;19.120;2023-04-06T03:10:21;12.37;;;7.65;;
71566;SDS011;59403;47.456;19.120;2023-04-06T03:12:48;14.47;;;7.87;;
71566;SDS011;59403;47.456;19.120;2023-04-06T03:15:14;15.23;;;8.05;;
71566;SDS011;59403;47.456;19.120;2023-04-06T03:17:42;13.25;;;7.90;;
71566;SDS011;59403;47.456;19.120;2023-04-06T03:20:09;13.50;;;7.75;;
71566;SDS011;59403;47.456;19.120;2023-04-06T03:22:37;14.13;;;7.22;;
71566;SDS011;59403;47.456;19.120;2023-04-06T03:25:05;15.20;;;7.57;;
71566;SDS011;59403;47.456;19.120;2023-04-06T03:27:32;15.82;;;7.25;;
71566;SDS011;59403;47.456;19.120;2023-04-06T03:29:59;15.23;;;7.35;;
71566;SDS011;59403;47.456;19.120;2023-04-06T03:32:26;12.73;;;7.57;;
71566;SDS011;59403;47.456;19.120;2023-04-06T03:34:53;12.45;;;7.62;;
71566;SDS011;59403;47.456;19.120;2023-04-06T03:37:21;13.03;;;6.77;;
71566;SDS011;59403;47.456;19.120;2023-04-06T03:39:49;15.13;;;7.10;;
71566;SDS011;59403;47.456;19.120;2023-04-06T03:42:16;12.00;;;7.40;;
71566;SDS011;59403;47.456;19.120;2023-04-06T03:44:43;15.23;;;7.07;;
71566;SDS011;59403;47.456;19.120;2023-04-06T03:47:10;14.60;;;7.12;;
71566;SDS011;59403;47.456;19.120;2023-04-06T03:49:37;15.43;;;7.37;;
71566;SDS011;59403;47.456;19.120;2023-04-06T03:52:04;13.65;;;7.28;;
71566;SDS011;59403;47.456;19.120;2023-04-06T03:54:31;14.75;;;7.87;;
71566;SDS011;59403;47.456;19.120;2023-04-06T03:56:59;16.05;;;7.82;;
71566;SDS011;59403;47.456;19.120;2023-04-06T03:59:26;15.43;;;7.37;;
71566;SDS011;59403;47.456;19.120;2023-04-06T04:01:53;12.20;;;6.90;;
71566;SDS011;59403;47.456;19.120;2023-04-06T04:04:20;13.68;;;7.03;;
71566;SDS011;59403;47.456;19.120;2023-04-06T04:06:48;17.90;;;7.43;;
71566;SDS011;59403;47.456;19.120;2023-04-06T04:09:15;17.25;;;8.07;;
71566;SDS011;59403;47.456;19.120;2023-04-06T04:11:42;16.20;;;7.55;;
71566;SDS011;59403;47.456;19.120;2023-04-06T04:14:10;12.97;;;7.80;;
71566;SDS011;59403;47.456;19.120;2023-04-06T04:16:37;16.90;;;8.02;;
71566;SDS011;59403;47.456;19.120;2023-04-06T04:19:06;17.45;;;8.40;;
71566;SDS011;59403;47.456;19.120;2023-04-06T04:21:33;14.85;;;7.65;;
71566;SDS011;59403;47.456;19.120;2023-04-06T04:24:08;17.25;;;7.68;;
71566;SDS011;59403;47.456;19.120;2023-04-06T04:26:34;16.63;;;7.63;;
71566;SDS011;59403;47.456;19.120;2023-04-06T04:29:01;13.55;;;7.65;;
71566;SDS011;59403;47.456;19.120;2023-04-06T04:31:30;17.45;;;8.75;;
71566;SDS011;59403;47.456;19.120;2023-04-06T04:33:57;19.65;;;9.00;;
71566;SDS011;59403;47.456;19.120;2023-04-06T04:36:24;23.87;;;9.23;;
71566;SDS011;59403;47.456;19.120;2023-04-06T04:38:51;16.80;;;8.80;;
71566;SDS011;59403;47.456;19.120;2023-04-06T04:41:19;20.33;;;8.55;;
71566;SDS011;59403;47.456;19.120;2023-04-06T04:43:46;17.45;;;8.40;;
71566;SDS011;59403;47.456;19.120;2023-04-06T04:46:12;15.73;;;8.57;;
71566;SDS011;59403;47.456;19.120;2023-04-06T04:48:41;18.62;;;8.70;;
71566;SDS011;59403;47.456;19.120;2023-04-06T04:51:08;18.10;;;8.70;;
71566;SDS011;59403;47.456;19.120;2023-04-06T04:53:35;16.00;;;8.43;;
71566;SDS011;59403;47.456;19.120;2023-04-06T04:56:02;16.08;;;8.82;;
71566;SDS011;59403;47.456;19.120;2023-04-06T04:58:29;17.50;;;9.05;;
71566;SDS011;59403;47.456;19.120;2023-04-06T05:00:56;23.05;;;10.43;;
71566;SDS011;59403;47.456;19.120;2023-04-06T05:03:23;19.90;;;9.83;;
71566;SDS011;59403;47.456;19.120;2023-04-06T05:05:52;18.08;;;10.25;;
71566;SDS011;59403;47.456;19.120;2023-04-06T05:08:19;19.58;;;9.93;;
71566;SDS011;59403;47.456;19.120;2023-04-06T05:10:47;17.48;;;9.18;;
71566;SDS011;59403;47.456;19.120;2023-04-06T05:13:14;20.83;;;10.45;;
71566;SDS011;59403;47.456;19.120;2023-04-06T05:15:41;19.53;;;9.07;;
71566;SDS011;59403;47.456;19.120;2023-04-06T05:18:09;20.62;;;9.15;;
71566;SDS011;59403;47.456;19.120;2023-04-06T05:20:37;19.33;;;9.27;;
71566;SDS011;59403;47.456;19.120;2023-04-06T05:23:07;20.83;;;10.57;;
71566;SDS011;59403;47.456;19.120;2023-04-06T05:25:33;20.27;;;10.02;;
71566;SDS011;59403;47.456;19.120;2023-04-06T05:28:01;19.27;;;9.20;;
71566;SDS011;59403;47.456;19.120;2023-04-06T05:30:28;22.83;;;9.48;;
71566;SDS011;59403;47.456;19.120;2023-04-06T05:32:55;19.60;;;9.32;;
71566;SDS011;59403;47.456;19.120;2023-04-06T05:35:22;19.23;;;9.93;;
71566;SDS011;59403;47.456;19.120;2023-04-06T05:37:50;17.55;;;9.75;;
71566;SDS011;59403;47.456;19.120;2023-04-06T05:40:18;19.17;;;9.43;;
71566;SDS011;59403;47.456;19.120;2023-04-06T05:42:45;19.37;;;9.65;;
71566;SDS011;59403;47.456;19.120;2023-04-06T05:45:12;24.42;;;9.20;;
71566;SDS011;59403;47.456;19.120;2023-04-06T05:47:41;19.48;;;9.25;;
71566;SDS011;59403;47.456;19.120;2023-04-06T05:50:09;23.30;;;9.90;;
71566;SDS011;59403;47.456;19.120;2023-04-06T05:52:37;15.10;;;8.77;;
71566;SDS011;59403;47.456;19.120;2023-04-06T05:55:04;16.12;;;9.43;;
71566;SDS011;59403;47.456;19.120;2023-04-06T05:57:33;21.05;;;9.27;;
71566;SDS011;59403;47.456;19.120;2023-04-06T06:00:00;15.80;;;8.30;;
71566;SDS011;59403;47.456;19.120;2023-04-06T06:02:30;18.35;;;9.93;;
71566;SDS011;59403;47.456;19.120;2023-04-06T06:04:57;22.13;;;9.90;;
71566;SDS011;59403;47.456;19.120;2023-04-06T06:07:24;20.20;;;10.23;;
71566;SDS011;59403;47.456;19.120;2023-04-06T06:09:51;24.83;;;10.27;;
71566;SDS011;59403;47.456;19.120;2023-04-06T06:12:19;19.50;;;10.10;;
71566;SDS011;59403;47.456;19.120;2023-04-06T06:14:47;19.65;;;9.30;;
71566;SDS011;59403;47.456;19.120;2023-04-06T06:17:14;20.13;;;10.20;;
71566;SDS011;59403;47.456;19.120;2023-04-06T06:19:41;17.50;;;9.55;;
71566;SDS011;59403;47.456;19.120;2023-04-06T06:22:08;17.73;;;10.75;;
71566;SDS011;59403;47.456;19.120;2023-04-06T06:24:35;22.25;;;9.85;;
71566;SDS011;59403;47.456;19.120;2023-04-06T06:27:02;18.85;;;9.90;;
71566;SDS011;59403;47.456;19.120;2023-04-06T06:29:29;17.40;;;9.53;;
71566;SDS011;59403;47.456;19.120;2023-04-06T06:34:40;15.80;;;9.43;;
71566;SDS011;59403;47.456;19.120;2023-04-06T06:37:07;17.35;;;8.35;;
71566;SDS011;59403;47.456;19.120;2023-04-06T06:39:34;14.70;;;7.50;;
71566;SDS011;59403;47.456;19.120;2023-04-06T06:42:01;13.63;;;7.50;;
71566;SDS011;59403;47.456;19.120;2023-04-06T06:44:27;13.62;;;7.80;;
71566;SDS011;59403;47.456;19.120;2023-04-06T06:46:55;14.95;;;8.93;;
71566;SDS011;59403;47.456;19.120;2023-04-06T06:49:23;16.58;;;9.57;;
71566;SDS011;59403;47.456;19.120;2023-04-06T06:51:50;14.80;;;7.85;;
71566;SDS011;59403;47.456;19.120;2023-04-06T06:54:17;15.63;;;7.93;;
71566;SDS011;59403;47.456;19.120;2023-04-06T06:56:44;16.12;;;8.35;;
71566;SDS011;59403;47.456;19.120;2023-04-06T06:59:11;12.27;;;7.45;;
71566;SDS011;59403;47.456;19.120;2023-04-06T07:01:38;15.48;;;7.18;;
71566;SDS011;59403;47.456;19.120;2023-04-06T07:04:05;12.55;;;6.80;;
71566;SDS011;59403;47.456;19.120;2023-04-06T07:06:34;13.17;;;7.47;;
71566;SDS011;59403;47.456;19.120;2023-04-06T07:09:02;14.25;;;7.47;;
71566;SDS011;59403;47.456;19.120;2023-04-06T07:11:29;12.95;;;6.80;;
71566;SDS011;59403;47.456;19.120;2023-04-06T07:13:56;15.32;;;8.13;;
71566;SDS011;59403;47.456;19.120;2023-04-06T07:16:23;12.80;;;7.47;;
71566;SDS011;59403;47.456;19.120;2023-04-06T07:18:51;13.40;;;6.97;;
71566;SDS011;59403;47.456;19.120;2023-04-06T07:21:17;12.65;;;6.78;;
71566;SDS011;59403;47.456;19.120;2023-04-06T07:23:46;11.20;;;6.20;;
71566;SDS011;59403;47.456;19.120;2023-04-06T07:26:13;11.10;;;6.32;;
71566;SDS011;59403;47.456;19.120;2023-04-06T07:28:40;10.80;;;6.35;;
71566;SDS011;59403;47.456;19.120;2023-04-06T07:31:08;12.60;;;6.53;;
71566;SDS011;59403;47.456;19.120;2023-04-06T07:33:36;11.57;;;6.65;;
71566;SDS011;59403;47.456;19.120;2023-04-06T07:36:03;10.55;;;6.07;;
71566;SDS011;59403;47.456;19.120;2023-04-06T07:38:30;12.02;;;6.03;;
71566;SDS011;59403;47.456;19.120;2023-04-06T07:40:59;9.43;;;6.22;;
71566;SDS011;59403;47.456;19.120;2023-04-06T07:43:28;10.70;;;5.87;;
71566;SDS011;59403;47.456;19.120;2023-04-06T07:45:55;11.82;;;6.15;;
71566;SDS011;59403;47.456;19.120;2023-04-06T07:48:22;11.75;;;6.60;;
71566;SDS011;59403;47.456;19.120;2023-04-06T07:50:49;11.60;;;6.30;;
71566;SDS011;59403;47.456;19.120;2023-04-06T07:53:16;12.07;;;6.30;;
71566;SDS011;59403;47.456;19.120;2023-04-06T07:55:43;12.40;;;6.83;;
71566;SDS011;59403;47.456;19.120;2023-04-06T07:58:12;12.15;;;6.40;;
71566;SDS011;59403;47.456;19.120;2023-04-06T08:00:39;10.63;;;6.32;;
71566;SDS011;59403;47.456;19.120;2023-04-06T08:03:06;12.63;;;5.80;;
71566;SDS011;59403;47.456;19.120;2023-04-06T08:05:33;13.15;;;6.03;;
71566;SDS011;59403;47.456;19.120;2023-04-06T08:07:59;12.37;;;6.43;;
71566;SDS011;59403;47.456;19.120;2023-04-06T08:10:26;11.75;;;6.80;;
71566;SDS011;59403;47.456;19.120;2023-04-06T08:12:53;12.20;;;6.32;;
71566;SDS011;59403;47.456;19.120;2023-04-06T08:15:22;12.32;;;6.80;;
71566;SDS011;59403;47.456;19.120;2023-04-06T08:17:49;12.32;;;6.78;;
71566;SDS011;59403;47.456;19.120;2023-04-06T08:20:16;13.43;;;6.87;;
71566;SDS011;59403;47.456;19.120;2023-04-06T08:22:43;11.77;;;6.70;;
71566;SDS011;59403;47.456;19.120;2023-04-06T08:25:10;14.23;;;7.75;;
71566;SDS011;59403;47.456;19.120;2023-04-06T08:27:37;11.48;;;6.50;;
71566;SDS011;59403;47.456;19.120;2023-04-06T08:30:04;12.77;;;6.47;;
71566;SDS011;59403;47.456;19.120;2023-04-06T08:32:33;11.40;;;6.83;;
71566;SDS011;59403;47.456;19.120;2023-04-06T08:35:00;12.23;;;7.47;;
71566;SDS011;59403;47.456;19.120;2023-04-06T08:37:28;13.05;;;7.07;;
71566;SDS011;59403;47.456;19.120;2023-04-06T08:39:55;13.57;;;6.57;;
71566;SDS011;59403;47.456;19.120;2023-04-06T08:42:25;12.93;;;7.35;;
71566;SDS011;59403;47.456;19.120;2023-04-06T08:44:52;12.70;;;7.20;;
71566;SDS011;59403;47.456;19.120;2023-04-06T08:47:21;10.32;;;6.55;;
71566;SDS011;59403;47.456;19.120;2023-04-06T08:49:50;13.00;;;6.70;;
71566;SDS011;59403;47.456;19.120;2023-04-06T08:52:17;13.07;;;6.28;;
71566;SDS011;59403;47.456;19.120;2023-04-06T08:54:45;12.77;;;6.75;;
71566;SDS011;59403;47.456;19.120;2023-04-06T08:57:12;12.37;;;6.43;;
71566;SDS011;59403;47.456;19.120;2023-04-06T08:59:39;16.02;;;6.90;;
71566;SDS011;59403;47.456;19.120;2023-04-06T09:02:07;10.15;;;6.60;;
71566;SDS011;59403;47.456;19.120;2023-04-06T09:04:42;12.43;;;6.72;;
71566;SDS011;59403;47.456;19.120;2023-04-06T09:07:13;13.62;;;7.25;;
71566;SDS011;59403;47.456;19.120;2023-04-06T09:09:40;13.17;;;6.43;;
71566;SDS011;59403;47.456;19.120;2023-04-06T09:12:21;12.60;;;6.97;;
71566;SDS011;59403;47.456;19.120;2023-04-06T09:14:49;10.77;;;6.85;;
71566;SDS011;59403;47.456;19.120;2023-04-06T09:17:20;13.65;;;7.68;;
71566;SDS011;59403;47.456;19.120;2023-04-06T09:19:48;11.68;;;7.50;;
71566;SDS011;59403;47.456;19.120;2023-04-06T09:22:16;12.53;;;6.90;;
71566;SDS011;59403;47.456;19.120;2023-04-06T09:24:44;12.35;;;5.87;;
71566;SDS011;59403;47.456;19.120;2023-04-06T09:27:12;10.30;;;6.10;;
71566;SDS011;59403;47.456;19.120;2023-04-06T09:29:39;11.73;;;6.53;;
71566;SDS011;59403;47.456;19.120;2023-04-06T09:32:10;9.35;;;6.50;;
71566;SDS011;59403;47.456;19.120;2023-04-06T09:34:41;11.23;;;6.33;;
71566;SDS011;59403;47.456;19.120;2023-04-06T09:37:14;10.65;;;6.07;;
71566;SDS011;59403;47.456;19.120;2023-04-06T09:39:43;10.85;;;5.95;;
71566;SDS011;59403;47.456;19.120;2023-04-06T09:42:11;13.45;;;5.72;;
71566;SDS011;59403;47.456;19.120;2023-04-06T09:44:38;11.10;;;6.60;;
71566;SDS011;59403;47.456;19.120;2023-04-06T09:47:06;9.87;;;5.70;;
71566;SDS011;59403;47.456;19.120;2023-04-06T09:49:34;12.48;;;5.65;;
71566;SDS011;59403;47.456;19.120;2023-04-06T09:52:01;10.18;;;6.30;;
71566;SDS011;59403;47.456;19.120;2023-04-06T09:54:31;13.13;;;6.20;;
71566;SDS011;59403;47.456;19.120;2023-04-06T09:57:01;9.68;;;5.35;;
71566;SDS011;59403;47.456;19.120;2023-04-06T09:59:36;9.53;;;6.00;;
71566;SDS011;59403;47.456;19.120;2023-04-06T10:02:13;14.32;;;6.32;;
71566;SDS011;59403;47.456;19.120;2023-04-06T10:04:58;12.18;;;6.22;;
71566;SDS011;59403;47.456;19.120;2023-04-06T10:07:29;11.10;;;6.43;;
71566;SDS011;59403;47.456;19.120;2023-04-06T10:09:58;11.10;;;6.40;;
71566;SDS011;59403;47.456;19.120;2023-04-06T10:12:26;11.83;;;6.43;;
71566;SDS011;59403;47.456;19.120;2023-04-06T10:14:53;11.70;;;5.75;;
71566;SDS011;59403;47.456;19.120;2023-04-06T10:17:21;10.50;;;5.43;;
71566;SDS011;59403;47.456;19.120;2023-04-06T10:19:49;10.68;;;6.10;;
71566;SDS011;59403;47.456;19.120;2023-04-06T10:22:22;10.40;;;6.43;;
71566;SDS011;59403;47.456;19.120;2023-04-06T10:24:55;9.70;;;5.83;;
71566;SDS011;59403;47.456;19.120;2023-04-06T10:27:28;9.93;;;5.95;;
71566;SDS011;59403;47.456;19.120;2023-04-06T10:30:00;10.02;;;6.53;;
71566;SDS011;59403;47.456;19.120;2023-04-06T10:32:32;10.20;;;6.03;;
71566;SDS011;59403;47.456;19.120;2023-04-06T10:35:08;12.10;;;6.47;;
71566;SDS011;59403;47.456;19.120;2023-04-06T10:37:49;9.43;;;5.70;;
71566;SDS011;59403;47.456;19.120;2023-04-06T10:40:19;10.70;;;5.75;;
71566;SDS011;59403;47.456;19.120;2023-04-06T10:42:50;9.73;;;5.28;;
71566;SDS011;59403;47.456;19.120;2023-04-06T10:45:22;9.38;;;6.12;;
71566;SDS011;59403;47.456;19.120;2023-04-06T10:47:50;10.82;;;6.70;;
71566;SDS011;59403;47.456;19.120;2023-04-06T10:50:19;11.03;;;6.03;;
71566;SDS011;59403;47.456;19.120;2023-04-06T10:52:47;11.45;;;6.12;;
71566;SDS011;59403;47.456;19.120;2023-04-06T10:55:26;11.32;;;5.62;;
71566;SDS011;59403;47.456;19.120;2023-04-06T10:57:54;11.90;;;6.05;;
71566;SDS011;59403;47.456;19.120;2023-04-06T11:00:21;9.70;;;6.07;;
71566;SDS011;59403;47.456;19.120;2023-04-06T11:02:49;16.77;;;6.07;;
71566;SDS011;59403;47.456;19.120;2023-04-06T11:05:16;10.73;;;6.70;;
71566;SDS011;59403;47.456;19.120;2023-04-06T11:07:43;10.43;;;5.93;;
71566;SDS011;59403;47.456;19.120;2023-04-06T11:10:11;9.40;;;5.70;;
71566;SDS011;59403;47.456;19.120;2023-04-06T11:12:40;11.80;;;5.70;;
71566;SDS011;59403;47.456;19.120;2023-04-06T11:15:08;10.10;;;6.17;;
71566;SDS011;59403;47.456;19.120;2023-04-06T11:17:36;10.05;;;5.30;;
71566;SDS011;59403;47.456;19.120;2023-04-06T11:20:04;8.85;;;5.62;;
71566;SDS011;59403;47.456;19.120;2023-04-06T11:22:35;9.90;;;5.87;;
71566;SDS011;59403;47.456;19.120;2023-04-06T11:25:05;9.63;;;5.18;;
71566;SDS011;59403;47.456;19.120;2023-04-06T11:27:33;9.83;;;5.53;;
71566;SDS011;59403;47.456;19.120;2023-04-06T11:30:02;10.65;;;5.82;;
71566;SDS011;59403;47.456;19.120;2023-04-06T11:32:38;9.65;;;5.75;;
71566;SDS011;59403;47.456;19.120;2023-04-06T11:35:07;8.23;;;5.20;;
71566;SDS011;59403;47.456;19.120;2023-04-06T11:37:37;10.00;;;5.40;;
71566;SDS011;59403;47.456;19.120;2023-04-06T11:40:07;8.13;;;4.60;;
71566;SDS011;59403;47.456;19.120;2023-04-06T11:42:35;7.87;;;5.35;;
71566;SDS011;59403;47.456;19.120;2023-04-06T11:45:05;9.68;;;5.47;;
71566;SDS011;59403;47.456;19.120;2023-04-06T11:47:34;12.18;;;5.80;;
71566;SDS011;59403;47.456;19.120;2023-04-06T11:50:06;8.70;;;5.18;;
71566;SDS011;59403;47.456;19.120;2023-04-06T11:52:33;11.33;;;5.07;;
71566;SDS011;59403;47.456;19.120;2023-04-06T11:55:09;8.65;;;5.60;;
71566;SDS011;59403;47.456;19.120;2023-04-06T11:57:38;11.15;;;6.05;;
71566;SDS011;59403;47.456;19.120;2023-04-06T12:00:07;9.68;;;5.43;;
71566;SDS011;59403;47.456;19.120;2023-04-06T12:02:35;8.35;;;5.18;;
71566;SDS011;59403;47.456;19.120;2023-04-06T12:05:02;9.90;;;5.60;;
71566;SDS011;59403;47.456;19.120;2023-04-06T12:07:30;11.27;;;5.82;;
71566;SDS011;59403;47.456;19.120;2023-04-06T12:09:58;9.70;;;5.82;;
71566;SDS011;59403;47.456;19.120;2023-04-06T12:12:25;9.30;;;5.05;;
71566;SDS011;59403;47.456;19.120;2023-04-06T12:14:52;9.77;;;5.45;;
71566;SDS011;59403;47.456;19.120;2023-04-06T12:17:20;8.53;;;5.13;;
71566;SDS011;59403;47.456;19.120;2023-04-06T12:19:48;11.07;;;5.40;;
71566;SDS011;59403;47.456;19.120;2023-04-06T12:22:18;10.45;;;5.35;;
71566;SDS011;59403;47.456;19.120;2023-04-06T12:24:45;8.63;;;5.60;;
71566;SDS011;59403;47.456;19.120;2023-04-06T12:27:12;12.13;;;5.70;;
71566;SDS011;59403;47.456;19.120;2023-04-06T12:29:39;9.63;;;5.97;;
71566;SDS011;59403;47.456;19.120;2023-04-06T12:32:06;8.57;;;5.05;;
71566;SDS011;59403;47.456;19.120;2023-04-06T12:34:35;15.30;;;10.60;;
71566;SDS011;59403;47.456;19.120;2023-04-06T12:37:02;9.82;;;6.37;;
71566;SDS011;59403;47.456;19.120;2023-04-06T12:39:29;11.48;;;6.03;;
71566;SDS011;59403;47.456;19.120;2023-04-06T12:41:56;8.87;;;5.03;;
71566;SDS011;59403;47.456;19.120;2023-04-06T12:44:23;9.90;;;5.55;;
71566;SDS011;59403;47.456;19.120;2023-04-06T12:46:50;10.35;;;5.22;;
71566;SDS011;59403;47.456;19.120;2023-04-06T12:49:17;11.00;;;5.40;;
71566;SDS011;59403;47.456;19.120;2023-04-06T12:51:47;11.45;;;5.55;;
71566;SDS011;59403;47.456;19.120;2023-04-06T12:54:13;10.73;;;6.37;;
71566;SDS011;59403;47.456;19.120;2023-04-06T12:56:40;15.75;;;7.80;;
71566;SDS011;59403;47.456;19.120;2023-04-06T12:59:07;10.60;;;5.70;;
71566;SDS011;59403;47.456;19.120;2023-04-06T13:01:34;10.43;;;5.25;;
71566;SDS011;59403;47.456;19.120;2023-04-06T13:04:01;9.18;;;5.22;;
71566;SDS011;59403;47.456;19.120;2023-04-06T13:06:28;10.20;;;5.07;;
71566;SDS011;59403;47.456;19.120;2023-04-06T13:08:57;8.15;;;4.95;;
71566;SDS011;59403;47.456;19.120;2023-04-06T13:11:25;7.95;;;5.43;;
71566;SDS011;59403;47.456;19.120;2023-04-06T13:13:52;10.40;;;5.80;;
71566;SDS011;59403;47.456;19.120;2023-04-06T13:16:19;8.85;;;5.45;;
71566;SDS011;59403;47.456;19.120;2023-04-06T13:18:46;9.27;;;5.53;;
71566;SDS011;59403;47.456;19.120;2023-04-06T13:21:13;8.25;;;5.07;;
71566;SDS011;59403;47.456;19.120;2023-04-06T13:23:42;8.95;;;5.53;;
71566;SDS011;59403;47.456;19.120;2023-04-06T13:26:11;10.30;;;6.93;;
71566;SDS011;59403;47.456;19.120;2023-04-06T13:28:38;12.25;;;7.37;;
71566;SDS011;59403;47.456;19.120;2023-04-06T13:31:05;9.17;;;5.50;;
71566;SDS011;59403;47.456;19.120;2023-04-06T13:33:33;7.97;;;5.12;;
71566;SDS011;59403;47.456;19.120;2023-04-06T13:36:00;8.80;;;5.10;;
71566;SDS011;59403;47.456;19.120;2023-04-06T13:38:28;12.68;;;6.12;;
71566;SDS011;59403;47.456;19.120;2023-04-06T13:40:56;7.60;;;4.60;;
71566;SDS011;59403;47.456;19.120;2023-04-06T13:43:24;8.83;;;5.87;;
71566;SDS011;59403;47.456;19.120;2023-04-06T13:45:52;7.43;;;5.00;;
71566;SDS011;59403;47.456;19.120;2023-04-06T13:48:20;8.68;;;5.12;;
71566;SDS011;59403;47.456;19.120;2023-04-06T13:50:47;8.10;;;5.15;;
71566;SDS011;59403;47.456;19.120;2023-04-06T13:53:15;9.13;;;5.60;;
71566;SDS011;59403;47.456;19.120;2023-04-06T13:55:42;8.87;;;5.33;;
71566;SDS011;59403;47.456;19.120;2023-04-06T13:58:09;8.68;;;5.07;;
71566;SDS011;59403;47.456;19.120;2023-04-06T14:00:37;8.75;;;5.18;;
71566;SDS011;59403;47.456;19.120;2023-04-06T14:03:05;12.20;;;4.90;;
71566;SDS011;59403;47.456;19.120;2023-04-06T14:05:32;7.72;;;5.00;;
71566;SDS011;59403;47.456;19.120;2023-04-06T14:07:59;7.67;;;4.33;;
71566;SDS011;59403;47.456;19.120;2023-04-06T14:10:26;8.95;;;4.68;;
71566;SDS011;59403;47.456;19.120;2023-04-06T14:12:53;7.90;;;4.40;;
71566;SDS011;59403;47.456;19.120;2023-04-06T14:15:22;7.45;;;4.40;;
71566;SDS011;59403;47.456;19.120;2023-04-06T14:17:51;7.97;;;4.82;;
71566;SDS011;59403;47.456;19.120;2023-04-06T14:20:18;7.53;;;4.40;;
71566;SDS011;59403;47.456;19.120;2023-04-06T14:22:45;9.25;;;4.93;;
71566;SDS011;59403;47.456;19.120;2023-04-06T14:25:14;9.00;;;5.40;;
71566;SDS011;59403;47.456;19.120;2023-04-06T14:27:41;8.32;;;4.97;;
71566;SDS011;59403;47.456;19.120;2023-04-06T14:30:08;8.90;;;5.20;;
71566;SDS011;59403;47.456;19.120;2023-04-06T14:32:36;7.57;;;5.23;;